Time;durP1;ratioP1;P1;durP2;ratioP2;P2;SDS_P1;SDS_P2;PMS_P1;PMS_P2;Temp;Humidity;BMP_temperature;BMP_pressure;BME280_temperature;BME280_humidity;BME280_pressure;Samples;Min_cycle;Max_cycle;Signal;HPM_P1;HPM_P2
2022/05/30 00:00:45;;;;;;;0.95;0.63;;;17.70;92.00;;;;;;5068640;28;19924;-60
2022/05/30 00:03:11;;;;;;;0.40;0.40;;;17.70;91.80;;;;;;5077745;28;20036;-60
2022/05/30 00:05:43;;;;;;;2.78;0.90;;;17.70;91.80;;;;;;5087909;28;20040;-61
2022/05/30 00:08:09;;;;;;;0.95;0.52;;;17.70;91.90;;;;;;5079393;28;20049;-61
2022/05/30 00:10:35;;;;;;;1.45;0.85;;;17.70;91.90;;;;;;5066595;28;20050;-62
2022/05/30 00:13:00;;;;;;;2.15;0.68;;;17.70;91.90;;;;;;5067415;28;20052;-60
2022/05/30 00:15:26;;;;;;;1.67;0.73;;;17.70;92.00;;;;;;5068872;28;20049;-60
2022/05/30 00:17:56;;;;;;;0.80;0.80;;;17.70;92.00;;;;;;5083999;28;20062;-60
2022/05/30 00:20:23;;;;;;;1.65;0.60;;;17.70;92.00;;;;;;5068577;28;20178;-62
2022/05/30 00:22:49;;;;;;;1.48;0.70;;;17.70;92.00;;;;;;5068529;28;20087;-66
2022/05/30 00:25:15;;;;;;;0.40;0.40;;;17.70;92.00;;;;;;5078046;28;20051;-62
2022/05/30 00:27:41;;;;;;;;;;;17.70;92.00;;;;;;5088107;28;20153;-61
2022/05/30 00:30:07;;;;;;;1.70;0.60;;;17.70;92.10;;;;;;5084754;28;20011;-63
2022/05/30 00:32:34;;;;;;;0.98;0.60;;;17.70;92.00;;;;;;5087885;28;20428;-62
2022/05/30 00:35:00;;;;;;;0.68;0.60;;;17.70;92.00;;;;;;5070493;28;20072;-62
2022/05/30 00:37:26;;;;;;;2.53;0.47;;;17.70;92.00;;;;;;5072437;28;20044;-61
2022/05/30 00:39:52;;;;;;;1.33;0.60;;;17.70;92.10;;;;;;5073680;28;20051;-66
2022/05/30 00:42:21;;;;;;;2.10;0.65;;;17.70;92.10;;;;;;5091521;28;20052;-62
2022/05/30 00:44:48;;;;;;;0.60;0.60;;;17.70;92.10;;;;;;5092372;28;20044;-61
2022/05/30 00:47:16;;;;;;;0.88;0.70;;;17.70;92.10;;;;;;5091683;28;20101;-60
2022/05/30 00:49:45;;;;;;;1.50;0.77;;;17.70;92.10;;;;;;5092405;28;20112;-61
2022/05/30 00:52:19;;;;;;;3.10;0.63;;;17.70;92.10;;;;;;5091651;28;20055;-62
2022/05/30 00:55:03;;;;;;;0.77;0.77;;;17.70;92.10;;;;;;5091774;28;20089;-61
2022/05/30 00:57:31;;;;;;;0.60;0.60;;;17.70;92.20;;;;;;5070809;28;20059;-62
2022/05/30 01:00:05;;;;;;;0.60;0.57;;;17.70;92.10;;;;;;5087454;28;20040;-60
2022/05/30 01:02:34;;;;;;;2.30;0.60;;;17.70;92.20;;;;;;5072090;28;20055;-60
2022/05/30 01:07:46;;;;;;;0.57;0.47;;;17.70;92.50;;;;;;5071596;28;20163;-60
2022/05/30 01:10:15;;;;;;;0.55;0.55;;;17.70;92.20;;;;;;5083195;28;20059;-60
2022/05/30 01:12:49;;;;;;;0.52;0.50;;;17.70;92.20;;;;;;5069442;28;20458;-61
2022/05/30 01:15:17;;;;;;;2.25;0.63;;;17.70;92.20;;;;;;5071366;28;20055;-60
2022/05/30 01:17:58;;;;;;;0.88;0.50;;;17.70;92.20;;;;;;5070686;28;20529;-61
2022/05/30 01:20:49;;;;;;;0.73;0.70;;;17.70;92.20;;;;;;5071303;28;20553;-65
2022/05/30 01:23:36;;;;;;;0.40;0.40;;;17.70;92.20;;;;;;5070595;28;20595;-61
2022/05/30 01:26:25;;;;;;;0.50;0.50;;;17.70;92.20;;;;;;5070019;28;20040;-60
2022/05/30 01:29:15;;;;;;;0.63;0.50;;;17.70;92.50;;;;;;5071252;28;20058;-61
2022/05/30 01:31:40;;;;;;;0.82;0.57;;;17.70;92.20;;;;;;5070426;28;20091;-60
2022/05/30 01:34:06;;;;;;;0.50;0.50;;;17.70;92.20;;;;;;5088461;28;20125;-60
2022/05/30 01:36:32;;;;;;;;;;;17.70;92.20;;;;;;5091582;28;20052;-60
2022/05/30 01:38:58;;;;;;;0.60;0.60;;;17.70;92.30;;;;;;5090297;28;19924;-61
2022/05/30 01:41:24;;;;;;;1.10;0.43;;;17.60;92.20;;;;;;5089041;28;20051;-61
2022/05/30 01:43:50;;;;;;;0.70;0.50;;;17.70;92.20;;;;;;5076470;28;20394;-60
2022/05/30 01:46:17;;;;;;;;;;;17.70;92.20;;;;;;5070959;28;20045;-60
2022/05/30 01:48:43;;;;;;;0.75;0.50;;;17.60;92.30;;;;;;5071262;28;19925;-60
2022/05/30 01:51:08;;;;;;;;;;;17.60;92.20;;;;;;5087581;28;20131;-64
2022/05/30 01:53:34;;;;;;;2.72;0.50;;;17.60;92.30;;;;;;5072309;28;20043;-61
2022/05/30 01:56:00;;;;;;;;;;;17.60;92.20;;;;;;5074415;28;20059;-61
2022/05/30 01:58:25;;;;;;;1.60;0.50;;;17.60;92.30;;;;;;5090334;28;19924;-61
2022/05/30 02:00:51;;;;;;;;;;;17.60;92.20;;;;;;5085908;28;20048;-60
2022/05/30 02:03:17;;;;;;;0.35;0.35;;;17.60;92.30;;;;;;5071635;28;19931;-61
2022/05/30 02:05:43;;;;;;;1.70;0.60;;;17.60;92.10;;;;;;5071869;28;20382;-62
2022/05/30 02:08:09;;;;;;;2.42;0.98;;;17.60;92.20;;;;;;5071231;28;20048;-61
2022/05/30 02:10:35;;;;;;;;;;;17.60;92.20;;;;;;5084362;28;20044;-62
2022/05/30 02:13:02;;;;;;;0.73;0.50;;;17.60;92.30;;;;;;5089762;28;19970;-62
2022/05/30 02:15:28;;;;;;;0.50;0.50;;;17.60;92.20;;;;;;5092180;28;20052;-61
2022/05/30 02:17:54;;;;;;;1.20;0.60;;;17.60;92.30;;;;;;5092022;28;20090;-61
2022/05/30 02:20:19;;;;;;;;;;;17.60;92.30;;;;;;5091724;28;20048;-64
2022/05/30 02:22:45;;;;;;;0.93;0.50;;;17.60;92.40;;;;;;5077458;28;19932;-60
2022/05/30 02:25:12;;;;;;;;;;;17.60;92.30;;;;;;5073622;28;20094;-60
2022/05/30 02:27:39;;;;;;;0.83;0.77;;;17.60;92.50;;;;;;5070796;28;19924;-60
2022/05/30 02:30:05;;;;;;;1.63;1.02;;;17.60;92.30;;;;;;5070767;28;20033;-60
2022/05/30 02:32:31;;;;;;;0.70;0.50;;;17.60;92.30;;;;;;5071622;28;20049;-62
2022/05/30 02:37:41;;;;;;;0.77;0.60;;;17.60;92.40;;;;;;5071008;28;20048;-60
2022/05/30 02:40:07;;;;;;;1.55;0.52;;;17.60;92.40;;;;;;5069201;28;20044;-60
2022/05/30 02:42:33;;;;;;;0.63;0.50;;;17.60;92.40;;;;;;5070495;28;20082;-60
2022/05/30 02:44:59;;;;;;;0.40;0.40;;;17.60;92.50;;;;;;5086193;28;20044;-60
2022/05/30 02:47:24;;;;;;;3.30;0.82;;;17.60;92.50;;;;;;5089909;28;20501;-60
2022/05/30 02:49:50;;;;;;;;;;;17.60;92.50;;;;;;5091312;28;20052;-64
2022/05/30 02:52:16;;;;;;;0.57;0.57;;;17.60;92.60;;;;;;5089693;28;19931;-61
2022/05/30 02:54:41;;;;;;;;;;;17.60;92.50;;;;;;5091197;28;20495;-60
2022/05/30 02:57:08;;;;;;;0.50;0.40;;;17.60;92.60;;;;;;5089458;28;19920;-60
2022/05/30 02:59:34;;;;;;;0.47;0.43;;;17.60;92.50;;;;;;5091138;28;20048;-60
2022/05/30 03:01:59;;;;;;;1.10;0.60;;;17.60;92.50;;;;;;5091388;28;20493;-63
2022/05/30 03:04:25;;;;;;;;;;;17.60;92.60;;;;;;5091159;28;20052;-61
2022/05/30 03:06:51;;;;;;;0.50;0.50;;;17.60;92.70;;;;;;5090909;28;20569;-61
2022/05/30 03:09:18;;;;;;;1.17;0.80;;;17.60;92.60;;;;;;5088427;28;20047;-61
2022/05/30 03:11:44;;;;;;;1.35;0.65;;;17.60;92.60;;;;;;5076602;28;20125;-61
2022/05/30 03:14:10;;;;;;;0.95;0.60;;;17.60;92.60;;;;;;5069896;28;20572;-61
2022/05/30 03:16:36;;;;;;;;;;;17.60;92.60;;;;;;5070899;28;20123;-61
2022/05/30 03:19:01;;;;;;;0.68;0.60;;;17.60;92.80;;;;;;5070684;28;20070;-61
2022/05/30 03:21:27;;;;;;;;;;;17.60;92.70;;;;;;5070282;28;20041;-61
2022/05/30 03:23:53;;;;;;;0.65;0.65;;;17.60;92.80;;;;;;5068962;28;19931;-64
2022/05/30 03:26:19;;;;;;;;;;;17.60;92.70;;;;;;5087892;28;20044;-61
2022/05/30 03:28:45;;;;;;;0.88;0.57;;;17.60;92.80;;;;;;5090618;28;19927;-61
2022/05/30 03:31:10;;;;;;;;;;;17.60;92.70;;;;;;5090745;28;20087;-61
2022/05/30 03:33:39;;;;;;;0.47;0.40;;;17.50;92.90;;;;;;5090622;28;19965;-61
2022/05/30 03:36:20;;;;;;;0.50;0.50;;;17.60;92.70;;;;;;5089581;28;20367;-61
2022/05/30 03:38:46;;;;;;;0.57;0.57;;;17.60;92.80;;;;;;5090234;28;20113;-63
2022/05/30 03:41:12;;;;;;;2.22;0.63;;;17.60;92.80;;;;;;5094069;28;20040;-63
2022/05/30 03:43:38;;;;;;;1.25;0.40;;;17.60;92.80;;;;;;5070375;28;20049;-62
2022/05/30 03:46:04;;;;;;;0.40;0.40;;;17.50;92.80;;;;;;5072906;28;20055;-61
2022/05/30 03:48:29;;;;;;;0.32;0.32;;;17.60;92.90;;;;;;5089824;28;20847;-60
2022/05/30 03:50:55;;;;;;;;;;;17.60;92.90;;;;;;5090885;28;20109;-61
2022/05/30 03:53:21;;;;;;;0.40;0.40;;;17.50;93.00;;;;;;5090072;28;20015;-61
2022/05/30 03:55:46;;;;;;;0.50;0.50;;;17.60;92.90;;;;;;5089328;28;20388;-63
2022/05/30 03:58:13;;;;;;;;;;;17.60;92.90;;;;;;5089237;28;20500;-66
2022/05/30 04:00:41;;;;;;;0.63;0.50;;;17.50;93.10;;;;;;5070119;28;20370;-61
2022/05/30 04:03:07;;;;;;;0.65;0.52;;;17.60;93.00;;;;;;5079180;28;20093;-61
2022/05/30 04:05:34;;;;;;;0.50;0.50;;;17.60;93.00;;;;;;5091899;28;20052;-61
2022/05/30 04:08:00;;;;;;;0.50;0.40;;;17.50;93.00;;;;;;5094417;28;20127;-61
2022/05/30 04:10:26;;;;;;;0.40;0.40;;;17.50;93.00;;;;;;5090584;28;20686;-61
2022/05/30 04:13:03;;;;;;;0.50;0.50;;;17.60;93.10;;;;;;5073845;28;20055;-62
2022/05/30 04:15:29;;;;;;;0.57;0.50;;;17.50;93.10;;;;;;5073840;28;20044;-61
2022/05/30 04:17:55;;;;;;;0.35;0.30;;;17.50;93.10;;;;;;5073911;28;20048;-61
2022/05/30 04:20:21;;;;;;;0.52;0.40;;;17.50;93.10;;;;;;5073151;28;20097;-61
2022/05/30 04:22:46;;;;;;;0.85;0.73;;;17.60;93.20;;;;;;5073824;28;20416;-61
2022/05/30 04:25:12;;;;;;;;;;;17.50;93.20;;;;;;5071351;28;20048;-66
2022/05/30 04:27:38;;;;;;;0.47;0.47;;;17.50;93.30;;;;;;5072947;28;20376;-63
2022/05/30 04:30:04;;;;;;;;;;;17.50;93.20;;;;;;5074021;28;20040;-63
2022/05/30 04:32:30;;;;;;;1.55;0.70;;;17.50;93.30;;;;;;5073337;28;19931;-61
2022/05/30 04:34:56;;;;;;;;;;;17.50;93.20;;;;;;5090479;28;20044;-63
2022/05/30 04:37:22;;;;;;;0.30;0.30;;;17.50;93.30;;;;;;5092325;28;19920;-61
2022/05/30 04:39:47;;;;;;;0.43;0.40;;;17.50;93.20;;;;;;5109005;28;20044;-63
2022/05/30 04:42:13;;;;;;;;;;;17.50;93.20;;;;;;5076204;28;20037;-67
2022/05/30 04:44:38;;;;;;;0.45;0.45;;;17.50;93.60;;;;;;5077548;28;19924;-61
2022/05/30 04:47:05;;;;;;;;;;;17.50;93.20;;;;;;5089592;28;20076;-61
2022/05/30 04:49:31;;;;;;;1.27;0.40;;;17.50;93.40;;;;;;5091342;28;20385;-61
2022/05/30 04:51:57;;;;;;;;;;;17.50;93.20;;;;;;5087145;28;20074;-61
2022/05/30 04:54:24;;;;;;;0.60;0.60;;;17.50;93.40;;;;;;5091179;28;19924;-62
2022/05/30 04:56:50;;;;;;;0.40;0.40;;;17.50;93.30;;;;;;5091067;28;20516;-61
2022/05/30 04:59:15;;;;;;;1.40;0.50;;;17.50;93.30;;;;;;5092991;28;20036;-67
2022/05/30 05:01:41;;;;;;;0.85;0.70;;;17.50;93.60;;;;;;5079911;28;20528;-61
2022/05/30 05:04:08;;;;;;;;;;;17.60;93.40;;;;;;5093919;28;20044;-63
2022/05/30 05:06:34;;;;;;;1.65;0.70;;;17.50;93.60;;;;;;5091377;28;20294;-63
2022/05/30 05:09:15;;;;;;;0.30;0.30;;;17.50;93.40;;;;;;5092708;28;20044;-61
2022/05/30 05:11:41;;;;;;;0.50;0.50;;;17.50;93.50;;;;;;5080010;28;20059;-62
2022/05/30 05:14:06;;;;;;;;;;;17.50;93.70;;;;;;5080563;28;20040;-61
2022/05/30 05:16:33;;;;;;;2.10;0.70;;;17.50;93.70;;;;;;5092467;28;19951;-61
2022/05/30 05:18:58;;;;;;;1.48;1.17;;;17.50;93.10;;;;;;5091213;28;20040;-62
2022/05/30 05:21:30;;;;;;;0.90;0.70;;;17.50;92.80;;;;;;5101793;28;20051;-61
2022/05/30 05:23:57;;;;;;;0.55;0.55;;;17.40;92.70;;;;;;5072416;28;20106;-60
2022/05/30 05:26:23;;;;;;;0.98;0.70;;;17.40;92.70;;;;;;5081327;28;20051;-60
2022/05/30 05:28:49;;;;;;;2.63;0.60;;;17.40;92.70;;;;;;5085266;28;20048;-61
2022/05/30 05:31:22;;;;;;;1.60;0.70;;;17.40;92.70;;;;;;5078467;28;20144;-61
2022/05/30 05:33:48;;;;;;;0.73;0.50;;;17.40;92.80;;;;;;5076188;28;20044;-60
2022/05/30 05:36:21;;;;;;;0.40;0.40;;;17.40;92.80;;;;;;5092329;28;20510;-60
2022/05/30 05:38:47;;;;;;;0.50;0.50;;;17.40;92.80;;;;;;5092251;28;20040;-60
2022/05/30 05:41:13;;;;;;;0.52;0.40;;;17.40;92.80;;;;;;5091583;28;20096;-62
2022/05/30 05:43:38;;;;;;;;;;;17.40;92.90;;;;;;5092390;28;20533;-60
2022/05/30 05:46:04;;;;;;;0.43;0.43;;;17.40;92.90;;;;;;5092713;28;19931;-61
2022/05/30 05:48:30;;;;;;;;;;;17.40;92.90;;;;;;5092540;28;20056;-60
2022/05/30 05:50:55;;;;;;;0.50;0.50;;;17.40;93.00;;;;;;5091541;28;19931;-60
2022/05/30 05:53:21;;;;;;;;;;;17.40;92.90;;;;;;5087755;28;20498;-67
2022/05/30 05:55:47;;;;;;;0.90;0.52;;;17.40;93.00;;;;;;5072242;28;19928;-61
2022/05/30 05:58:12;;;;;;;0.63;0.52;;;17.40;92.90;;;;;;5090555;28;20061;-61
2022/05/30 06:00:38;;;;;;;;;;;17.40;92.90;;;;;;5092268;28;20044;-62
2022/05/30 06:03:04;;;;;;;1.23;0.50;;;17.40;93.10;;;;;;5092387;28;19920;-60
2022/05/30 06:05:30;;;;;;;;;;;17.40;93.00;;;;;;5091859;28;20056;-60
2022/05/30 06:07:59;;;;;;;0.80;0.50;;;17.40;93.20;;;;;;5092142;28;19965;-62
2022/05/30 06:10:25;;;;;;;1.02;0.43;;;17.40;93.00;;;;;;5080195;28;20485;-65
2022/05/30 06:12:51;;;;;;;0.68;0.50;;;17.40;93.10;;;;;;5089835;28;20047;-63
2022/05/30 06:15:19;;;;;;;0.50;0.50;;;17.40;93.10;;;;;;5090448;28;20063;-63
2022/05/30 06:17:45;;;;;;;0.52;0.52;;;17.50;93.20;;;;;;5090561;28;20040;-63
2022/05/30 06:20:13;;;;;;;0.68;0.60;;;17.40;93.20;;;;;;5090592;28;20044;-60
2022/05/30 06:22:39;;;;;;;1.85;0.60;;;17.40;92.90;;;;;;5089466;28;20409;-60
2022/05/30 06:25:05;;;;;;;0.93;0.77;;;17.40;92.90;;;;;;5090363;28;20048;-60
2022/05/30 06:27:31;;;;;;;0.57;0.57;;;17.40;92.90;;;;;;5090057;28;20078;-59
2022/05/30 06:29:57;;;;;;;;;;;17.40;92.90;;;;;;5092015;28;20040;-60
2022/05/30 06:32:23;;;;;;;0.85;0.43;;;17.40;92.80;;;;;;5080936;28;19973;-61
2022/05/30 06:34:48;;;;;;;0.50;0.50;;;17.40;92.90;;;;;;5076453;28;20094;-60
2022/05/30 06:37:14;;;;;;;;;;;17.40;92.90;;;;;;5086245;28;20049;-60
2022/05/30 06:39:40;;;;;;;0.57;0.50;;;17.40;93.00;;;;;;5071688;28;19924;-62
2022/05/30 06:42:11;;;;;;;1.08;0.60;;;17.40;93.00;;;;;;5075669;28;20551;-62
2022/05/30 06:44:38;;;;;;;0.40;0.40;;;17.40;93.00;;;;;;5069484;28;20059;-60
2022/05/30 06:47:05;;;;;;;0.50;0.50;;;17.40;93.10;;;;;;5068289;28;20570;-61
2022/05/30 06:49:31;;;;;;;0.45;0.45;;;17.40;93.10;;;;;;5079609;28;20087;-59
2022/05/30 06:51:57;;;;;;;0.93;0.73;;;17.50;93.20;;;;;;5086749;28;20137;-62
2022/05/30 06:54:23;;;;;;;0.40;0.40;;;17.50;93.20;;;;;;5074558;28;20065;-60
2022/05/30 06:59:34;;;;;;;1.40;0.52;;;17.50;93.30;;;;;;5088657;28;20040;-60
2022/05/30 07:02:01;;;;;;;0.40;0.40;;;17.50;93.30;;;;;;5086474;28;20048;-60
2022/05/30 07:04:31;;;;;;;1.27;0.43;;;17.50;93.40;;;;;;5078394;28;20040;-60
2022/05/30 07:06:57;;;;;;;0.73;0.70;;;17.50;93.40;;;;;;5089520;28;20036;-59
2022/05/30 07:09:22;;;;;;;1.95;0.55;;;17.50;93.40;;;;;;5077214;28;20547;-64
2022/05/30 07:11:49;;;;;;;;;;;17.50;93.50;;;;;;5070925;28;20048;-61
2022/05/30 07:14:16;;;;;;;1.17;0.53;;;17.50;93.60;;;;;;5075486;28;19920;-60
2022/05/30 07:16:43;;;;;;;0.65;0.60;;;17.50;93.50;;;;;;5082821;28;20051;-60
2022/05/30 07:19:09;;;;;;;23.70;1.10;;;17.50;93.50;;;;;;5070485;28;20161;-60
2022/05/30 07:21:36;;;;;;;2.00;0.60;;;17.50;93.60;;;;;;5069478;28;20120;-60
2022/05/30 07:24:03;;;;;;;1.58;1.00;;;17.50;93.60;;;;;;5077886;28;20556;-61
2022/05/30 07:26:29;;;;;;;2.15;0.77;;;17.50;92.50;;;;;;5073152;28;20044;-61
2022/05/30 07:28:55;;;;;;;0.77;0.70;;;17.30;91.80;;;;;;5073881;28;20505;-61
2022/05/30 07:31:25;;;;;;;1.90;0.60;;;17.20;91.30;;;;;;5076489;28;20048;-61
2022/05/30 07:33:51;;;;;;;4.40;0.77;;;17.00;90.50;;;;;;5069880;28;20118;-61
2022/05/30 07:36:27;;;;;;;;;;;16.80;90.20;;;;;;5070546;28;20413;-60
2022/05/30 07:38:54;;;;;;;2.35;0.95;;;16.60;87.90;;;;;;5077089;28;19932;-60
2022/05/30 07:41:21;;;;;;;2.88;0.80;;;16.60;90.10;;;;;;5072197;28;20053;-61
2022/05/30 07:43:47;;;;;;;1.00;0.75;;;16.40;89.30;;;;;;5073067;28;20394;-61
2022/05/30 07:46:15;;;;;;;0.68;0.60;;;16.30;89.10;;;;;;5074426;28;20048;-61
2022/05/30 07:48:41;;;;;;;2.13;0.90;;;16.30;89.10;;;;;;5072231;28;20060;-61
2022/05/30 07:51:08;;;;;;;1.80;0.50;;;16.30;88.60;;;;;;5074296;28;20141;-60
2022/05/30 07:53:35;;;;;;;1.40;0.70;;;16.20;88.40;;;;;;5074063;28;20102;-60
2022/05/30 07:56:07;;;;;;;0.95;0.50;;;16.10;89.00;;;;;;5071480;28;20123;-59
2022/05/30 07:58:33;;;;;;;1.13;0.77;;;16.10;88.60;;;;;;5083547;28;20132;-62
2022/05/30 08:00:58;;;;;;;;;;;16.10;88.20;;;;;;5085152;28;20056;-63
2022/05/30 08:03:26;;;;;;;0.93;0.60;;;16.00;86.20;;;;;;5077313;28;19991;-62
2022/05/30 08:06:02;;;;;;;1.58;0.50;;;16.00;87.80;;;;;;5081427;28;20052;-62
2022/05/30 08:08:27;;;;;;;1.98;0.80;;;16.00;86.90;;;;;;5075410;28;20048;-62
2022/05/30 08:10:53;;;;;;;0.52;0.52;;;15.90;86.10;;;;;;5079912;28;20036;-61
2022/05/30 08:13:19;;;;;;;2.17;0.63;;;15.90;86.50;;;;;;5081869;28;20463;-61
2022/05/30 08:15:44;;;;;;;2.75;0.63;;;15.80;86.30;;;;;;5079612;28;20054;-61
2022/05/30 08:18:15;;;;;;;0.68;0.47;;;15.80;86.50;;;;;;5078837;28;20170;-61
2022/05/30 08:20:41;;;;;;;0.73;0.52;;;15.90;86.10;;;;;;5075124;28;20098;-61
2022/05/30 08:23:07;;;;;;;;;;;15.90;86.20;;;;;;5085006;28;20050;-61
2022/05/30 08:25:33;;;;;;;2.47;0.43;;;15.90;85.60;;;;;;5079844;28;19924;-60
2022/05/30 08:27:59;;;;;;;0.80;0.65;;;15.90;86.30;;;;;;5073798;28;20072;-61
2022/05/30 08:30:25;;;;;;;0.88;0.40;;;15.90;86.40;;;;;;5085381;28;20036;-61
2022/05/30 08:32:50;;;;;;;1.08;0.38;;;16.00;86.40;;;;;;5093052;28;20086;-60
2022/05/30 08:35:19;;;;;;;0.30;0.30;;;16.10;86.50;;;;;;5092860;28;20098;-60
2022/05/30 08:37:46;;;;;;;1.67;0.50;;;16.20;86.50;;;;;;5090943;28;20443;-60
2022/05/30 08:43:15;;;;;;;2.63;0.50;;;16.30;86.60;;;;;;5090143;28;20115;-60
2022/05/30 08:45:41;;;;;;;0.50;0.50;;;16.30;86.50;;;;;;5090329;28;20056;-64
2022/05/30 08:48:15;;;;;;;0.77;0.40;;;16.40;86.60;;;;;;5091685;28;20058;-62
2022/05/30 08:50:55;;;;;;;0.20;0.20;;;16.40;87.10;;;;;;5085496;28;20063;-64
2022/05/30 08:53:31;;;;;;;1.10;0.40;;;16.50;86.60;;;;;;5089549;28;20773;-61
2022/05/30 08:56:14;;;;;;;2.05;0.82;;;16.50;86.60;;;;;;5090658;28;20122;-60
2022/05/30 08:58:58;;;;;;;0.38;0.38;;;16.60;86.50;;;;;;5080169;28;20489;-60
2022/05/30 09:01:43;;;;;;;0.50;0.50;;;16.60;86.60;;;;;;5090547;28;20043;-60
2022/05/30 09:04:36;;;;;;;1.23;0.50;;;16.60;86.50;;;;;;5085227;28;20119;-61
2022/05/30 09:07:05;;;;;;;0.43;0.43;;;16.60;86.60;;;;;;5070431;28;20052;-61
2022/05/30 09:09:42;;;;;;;0.82;0.50;;;16.70;86.70;;;;;;5091418;28;20147;-61
2022/05/30 09:12:13;;;;;;;1.02;0.47;;;16.70;86.70;;;;;;5088143;28;20044;-61
2022/05/30 09:14:48;;;;;;;0.70;0.60;;;16.70;86.70;;;;;;5088825;28;20051;-61
2022/05/30 09:17:20;;;;;;;1.00;0.47;;;16.70;86.70;;;;;;5091947;28;20040;-60
2022/05/30 09:19:46;;;;;;;0.95;0.50;;;16.80;86.80;;;;;;5092667;28;20075;-65
2022/05/30 09:22:13;;;;;;;;;;;16.80;86.90;;;;;;5090259;28;20501;-60
2022/05/30 09:25:55;;;;;;;1.35;0.40;;;16.80;86.70;;;;;;5088828;28;20335;-62
2022/05/30 09:27:29;;;;;;;1.02;0.82;;;16.80;87.00;;;;;;5089668;28;20048;-60
2022/05/30 09:29:57;;;;;;;1.23;0.60;;;16.90;87.10;;;;;;5090849;28;20032;-61
2022/05/30 09:32:35;;;;;;;0.30;0.30;;;16.90;87.10;;;;;;5089793;28;20109;-60
2022/05/30 09:35:25;;;;;;;2.67;0.60;;;16.90;87.10;;;;;;5089607;28;20929;-60
2022/05/30 09:38:23;;;;;;;0.65;0.50;;;16.90;87.10;;;;;;5074822;28;20052;-60
2022/05/30 09:40:59;;;;;;;1.85;0.80;;;16.90;87.20;;;;;;5054746;28;20056;-60
2022/05/30 09:43:38;;;;;;;0.55;0.50;;;16.90;87.30;;;;;;5052522;28;20052;-60
2022/05/30 09:46:30;;;;;;;2.47;0.50;;;17.00;87.40;;;;;;5070153;28;20119;-61
2022/05/30 09:49:02;;;;;;;1.20;0.57;;;17.00;87.40;;;;;;5069441;28;20804;-60
2022/05/30 09:51:38;;;;;;;0.82;0.52;;;17.00;87.50;;;;;;5072572;28;20484;-61
2022/05/30 09:54:07;;;;;;;1.75;0.50;;;17.00;87.60;;;;;;5086804;28;20048;-60
2022/05/30 09:56:39;;;;;;;0.50;0.50;;;17.00;87.60;;;;;;5080320;28;20046;-60
2022/05/30 09:59:13;;;;;;;0.60;0.60;;;17.00;87.70;;;;;;5081009;28;20032;-60
2022/05/30 10:01:40;;;;;;;1.23;0.60;;;17.00;87.70;;;;;;5075346;28;20047;-63
2022/05/30 10:04:32;;;;;;;1.52;0.50;;;17.00;87.70;;;;;;5078168;28;20040;-60
2022/05/30 10:07:06;;;;;;;0.40;0.40;;;17.00;87.70;;;;;;5087890;28;20086;-61
2022/05/30 10:09:34;;;;;;;0.43;0.43;;;17.10;87.80;;;;;;5078927;28;20044;-59
2022/05/30 10:12:01;;;;;;;1.92;0.77;;;17.00;88.40;;;;;;5083972;28;20036;-62
2022/05/30 10:14:34;;;;;;;0.40;0.40;;;17.00;87.80;;;;;;5085888;28;20091;-61
2022/05/30 10:17:12;;;;;;;1.27;0.80;;;17.00;86.90;;;;;;5085885;28;20481;-60
2022/05/30 10:19:42;;;;;;;3.17;0.75;;;17.00;86.50;;;;;;5076322;28;20047;-59
2022/05/30 10:28:27;;;;;;;0.82;0.52;;;17.00;86.40;;;;;;5073032;28;20075;-60
2022/05/30 10:31:04;;;;;;;0.40;0.40;;;17.00;86.60;;;;;;5083167;28;20059;-65
2022/05/30 10:33:47;;;;;;;1.70;0.55;;;17.00;86.60;;;;;;5084248;28;20858;-62
2022/05/30 10:36:28;;;;;;;0.55;0.52;;;17.00;86.70;;;;;;5083424;28;20043;-61
2022/05/30 10:39:44;;;;;;;0.55;0.32;;;17.00;86.70;;;;;;5085923;28;20063;-61
2022/05/30 10:42:16;;;;;;;0.43;0.43;;;17.00;86.80;;;;;;5047339;28;20135;-62
2022/05/30 10:44:49;;;;;;;0.45;0.43;;;17.00;87.40;;;;;;5074290;28;20490;-61
2022/05/30 10:47:38;;;;;;;0.30;0.30;;;17.00;85.20;;;;;;5070406;28;20057;-61
2022/05/30 10:50:20;;;;;;;0.82;0.77;;;17.00;84.30;;;;;;5068123;28;20063;-60
2022/05/30 10:52:59;;;;;;;0.40;0.40;;;16.90;84.60;;;;;;5080097;28;20544;-61
2022/05/30 10:55:32;;;;;;;1.65;0.50;;;16.90;84.30;;;;;;5076462;28;20516;-60
2022/05/30 10:58:07;;;;;;;1.45;0.60;;;16.90;84.30;;;;;;5069713;28;20036;-60
2022/05/30 11:00:40;;;;;;;2.35;0.60;;;17.00;84.40;;;;;;5078168;28;20401;-60
2022/05/30 11:03:43;;;;;;;0.28;0.28;;;17.00;84.50;;;;;;5078263;28;20416;-60
2022/05/30 11:06:23;;;;;;;2.85;0.50;;;17.00;84.40;;;;;;5078331;28;20477;-60
2022/05/30 11:09:01;;;;;;;0.20;0.20;;;17.00;84.60;;;;;;5073486;28;20481;-60
2022/05/30 11:11:43;;;;;;;0.75;0.30;;;17.00;84.80;;;;;;5081016;28;20048;-59
2022/05/30 11:14:37;;;;;;;0.20;0.20;;;17.00;84.80;;;;;;5086398;28;20108;-60
2022/05/30 11:17:22;;;;;;;0.43;0.43;;;17.00;84.80;;;;;;5086893;28;20048;-60
2022/05/30 11:20:13;;;;;;;0.93;0.50;;;17.10;85.10;;;;;;5070267;28;20040;-60
2022/05/30 11:22:40;;;;;;;0.57;0.40;;;17.10;85.10;;;;;;5070552;28;20143;-60
2022/05/30 11:25:12;;;;;;;0.40;0.40;;;17.10;85.20;;;;;;5069096;28;20044;-60
2022/05/30 11:27:49;;;;;;;0.57;0.28;;;17.10;85.30;;;;;;5068900;28;20114;-63
2022/05/30 11:30:35;;;;;;;1.75;0.30;;;17.10;85.40;;;;;;5071844;28;20110;-60
2022/05/30 11:33:39;;;;;;;0.40;0.40;;;17.10;85.30;;;;;;5073903;28;20055;-62
2022/05/30 11:36:43;;;;;;;0.65;0.40;;;17.10;85.30;;;;;;5062594;28;20052;-62
2022/05/30 11:39:32;;;;;;;1.75;0.40;;;17.10;85.30;;;;;;5076775;28;20071;-60
2022/05/30 11:41:59;;;;;;;0.60;0.35;;;17.10;85.40;;;;;;5060229;28;20106;-63
2022/05/30 11:44:51;;;;;;;0.40;0.40;;;17.10;83.80;;;;;;5079326;28;20048;-60
2022/05/30 11:47:26;;;;;;;0.20;0.20;;;17.10;81.80;;;;;;5078501;28;20044;-60
2022/05/30 11:49:57;;;;;;;0.30;0.30;;;17.00;81.60;;;;;;5092945;28;20417;-59
2022/05/30 11:52:43;;;;;;;1.45;0.38;;;16.90;81.30;;;;;;5077144;28;20131;-59
2022/05/30 11:55:14;;;;;;;0.30;0.30;;;16.90;81.10;;;;;;5071704;28;20048;-60
2022/05/30 11:57:45;;;;;;;1.25;0.38;;;16.80;80.90;;;;;;5069503;28;20044;-60
2022/05/30 12:00:30;;;;;;;0.52;0.52;;;16.80;80.90;;;;;;5069411;28;20045;-60
2022/05/30 12:03:05;;;;;;;2.83;0.70;;;16.80;81.10;;;;;;5076283;28;20087;-59
2022/05/30 12:05:52;;;;;;;2.30;0.55;;;16.80;81.10;;;;;;5071730;28;20061;-60
2022/05/30 12:08:42;;;;;;;;;;;16.70;81.30;;;;;;5074647;28;20045;-60
2022/05/30 12:11:27;;;;;;;0.82;0.50;;;16.60;81.70;;;;;;5074757;28;19973;-60
2022/05/30 12:14:25;;;;;;;1.30;0.60;;;16.60;82.10;;;;;;5079508;28;20066;-59
2022/05/30 12:17:10;;;;;;;0.60;0.60;;;16.50;82.20;;;;;;5078493;28;20051;-59
2022/05/30 12:25:36;;;;;;;0.73;0.50;;;16.40;82.10;;;;;;5071794;28;20049;-60
2022/05/30 12:28:04;;;;;;;3.17;0.80;;;16.40;81.70;;;;;;5077908;28;20083;-62
2022/05/30 12:30:45;;;;;;;7.05;0.73;;;16.30;81.80;;;;;;5082448;28;20048;-59
2022/05/30 12:33:31;;;;;;;0.47;0.47;;;16.20;81.90;;;;;;5081840;28;20052;-59
2022/05/30 12:36:08;;;;;;;2.63;1.02;;;16.30;82.30;;;;;;5082775;28;20040;-59
2022/05/30 12:38:49;;;;;;;0.57;0.50;;;16.30;82.50;;;;;;5077579;28;20040;-60
2022/05/30 12:41:23;;;;;;;3.30;0.60;;;16.30;82.50;;;;;;5076955;28;20101;-62
2022/05/30 12:43:49;;;;;;;0.40;0.40;;;16.30;82.40;;;;;;5081043;28;20126;-59
2022/05/30 12:46:52;;;;;;;0.85;0.40;;;16.30;82.40;;;;;;5079792;28;20123;-58
2022/05/30 12:49:32;;;;;;;2.15;0.50;;;16.30;82.40;;;;;;5079450;28;20052;-61
2022/05/30 12:52:01;;;;;;;1.60;0.65;;;16.40;82.60;;;;;;5078139;28;20448;-59
2022/05/30 12:54:36;;;;;;;1.05;0.65;;;16.40;82.70;;;;;;5073853;28;20119;-58
2022/05/30 12:57:10;;;;;;;1.80;0.60;;;16.50;82.90;;;;;;5077927;28;20051;-58
2022/05/30 13:00:00;;;;;;;0.40;0.40;;;16.50;83.10;;;;;;5074193;28;20080;-58
2022/05/30 13:02:44;;;;;;;1.67;0.55;;;16.50;83.30;;;;;;5072841;28;20505;-58
2022/05/30 13:05:38;;;;;;;1.48;0.50;;;16.50;83.30;;;;;;5072589;28;20056;-58
2022/05/30 13:08:42;;;;;;;1.45;0.60;;;16.60;83.60;;;;;;5085925;28;20109;-60
2022/05/30 13:11:10;;;;;;;0.45;0.40;;;16.60;83.70;;;;;;5071061;28;20124;-58
2022/05/30 13:13:41;;;;;;;0.50;0.50;;;16.60;83.60;;;;;;5076665;28;20048;-58
2022/05/30 13:16:23;;;;;;;0.50;0.50;;;16.60;83.70;;;;;;5084713;28;20109;-61
2022/05/30 13:18:48;;;;;;;0.80;0.43;;;16.70;83.90;;;;;;5093321;28;20067;-58
2022/05/30 13:21:14;;;;;;;0.85;0.55;;;16.70;84.00;;;;;;5088714;28;20501;-58
2022/05/30 13:23:40;;;;;;;1.13;0.52;;;16.70;84.00;;;;;;5093230;28;20142;-58
2022/05/30 13:26:12;;;;;;;0.85;0.70;;;16.70;84.10;;;;;;5086962;28;20048;-60
2022/05/30 13:28:43;;;;;;;0.57;0.38;;;16.80;84.30;;;;;;5088523;28;20052;-58
2022/05/30 13:31:11;;;;;;;0.40;0.40;;;16.70;84.30;;;;;;5092165;28;20036;-61
2022/05/30 13:33:47;;;;;;;0.90;0.52;;;16.70;84.40;;;;;;5089971;28;20040;-59
2022/05/30 13:36:41;;;;;;;1.85;0.95;;;16.80;84.60;;;;;;5070849;28;20079;-58
2022/05/30 13:39:10;;;;;;;1.65;0.45;;;16.80;84.70;;;;;;5079218;28;20122;-60
2022/05/30 13:41:38;;;;;;;0.75;0.50;;;16.80;84.60;;;;;;5076228;28;20102;-58